Time;durP1;ratioP1;P1;durP2;ratioP2;P2;SDS_P1;SDS_P2;PMS_P1;PMS_P2;Temp;Humidity;BMP_temperature;BMP_pressure;BME280_temperature;BME280_humidity;BME280_pressure;Samples;Min_cycle;Max_cycle;Signal;HPM_P1;HPM_P2
2023/02/01 00:00:56;;;;;;;5.28;3.28;;;;;;;8.96;100.00;96832.94;5043388;28;20084;-54
2023/02/01 00:03:26;;;;;;;5.30;3.53;;;;;;;8.98;100.00;96826.59;5045966;28;20076;-49
2023/02/01 00:05:57;;;;;;;4.60;3.20;;;;;;;9.13;100.00;96816.59;5047867;28;20080;-54
2023/02/01 00:08:26;;;;;;;6.38;3.53;;;;;;;9.03;100.00;96820.94;5049422;28;20236;-54
2023/02/01 00:11:04;;;;;;;6.20;3.58;;;;;;;8.78;100.00;96824.75;5048880;28;20175;-49
2023/02/01 00:13:34;;;;;;;5.93;3.28;;;;;;;8.94;100.00;96833.03;5050933;28;20081;-55
2023/02/01 00:16:06;;;;;;;5.10;3.70;;;;;;;8.78;100.00;96824.75;5048326;28;20072;-52
2023/02/01 00:18:35;;;;;;;5.63;3.10;;;;;;;9.23;100.00;96814.03;5045311;28;20509;-53
2023/02/01 00:21:03;;;;;;;5.38;3.08;;;;;;;9.01;100.00;96817.59;5044781;28;20114;-52
2023/02/01 00:23:33;;;;;;;4.13;2.80;;;;;;;8.96;100.00;96823.25;5047392;28;20445;-55
2023/02/01 00:26:03;;;;;;;5.90;3.08;;;;;;;9.01;100.00;96814.97;5043217;28;20532;-54
2023/02/01 00:28:31;;;;;;;4.38;3.22;;;;;;;8.92;100.00;96811.31;5046345;28;20099;-53
2023/02/01 00:31:00;;;;;;;4.15;2.70;;;;;;;9.12;100.00;96816.69;5051569;28;20099;-51
2023/02/01 00:33:29;;;;;;;7.13;3.67;;;;;;;9.09;100.00;96809.91;5047122;28;20459;-56
2023/02/01 00:35:58;;;;;;;4.50;2.92;;;;;;;8.85;100.00;96809.31;5048973;28;20099;-52
2023/02/01 00:38:26;;;;;;;4.35;2.83;;;;;;;9.04;100.00;96797.13;5043868;28;20096;-53
2023/02/01 00:40:55;;;;;;;6.63;2.65;;;;;;;9.23;100.00;96796.44;5045140;28;20080;-54
2023/02/01 00:43:25;;;;;;;5.65;3.25;;;;;;;9.01;100.00;96788.66;5049621;28;20152;-58
2023/02/01 00:45:53;;;;;;;4.25;2.88;;;;;;;8.93;100.00;96799.81;5047396;28;20068;-52
2023/02/01 00:48:21;;;;;;;6.82;3.75;;;;;;;9.02;100.00;96790.34;5049142;28;20084;-55
2023/02/01 00:50:49;;;;;;;6.32;3.85;;;;;;;8.85;100.00;96793.53;5052391;28;20076;-57
2023/02/01 00:53:17;;;;;;;3.92;2.58;;;;;;;8.81;100.00;96787.69;5052056;28;20513;-56
2023/02/01 00:55:46;;;;;;;4.20;3.03;;;;;;;8.94;100.00;96790.13;5052034;28;20464;-52
2023/02/01 00:58:15;;;;;;;7.35;3.53;;;;;;;9.22;100.00;96780.78;5051032;28;20109;-54
2023/02/01 01:00:46;;;;;;;4.38;3.30;;;;;;;8.63;100.00;96807.56;5050676;28;20073;-56
2023/02/01 01:03:18;;;;;;;6.70;3.75;;;;;;;8.71;100.00;96803.38;5053410;28;20076;-52
2023/02/01 01:05:46;;;;;;;4.95;3.55;;;;;;;8.69;100.00;96793.94;5049835;28;20087;-55
2023/02/01 01:08:15;;;;;;;4.75;3.28;;;;;;;8.62;100.00;96804.09;5047439;28;20446;-51
2023/02/01 01:10:44;;;;;;;4.97;3.13;;;;;;;8.50;100.00;96774.41;5050582;28;20076;-58
2023/02/01 01:13:12;;;;;;;5.07;3.50;;;;;;;8.56;100.00;96788.81;5048367;28;20096;-57
2023/02/01 01:15:40;;;;;;;6.97;4.28;;;;;;;8.85;100.00;96785.63;5055042;28;20077;-54
2023/02/01 01:18:10;;;;;;;6.07;3.90;;;;;;;8.86;100.00;96785.50;5051345;28;20091;-56
2023/02/01 01:20:40;;;;;;;7.30;5.03;;;;;;;8.49;100.00;96790.28;5050648;28;20084;-58
2023/02/01 01:23:09;;;;;;;8.30;4.60;;;;;;;8.06;100.00;96797.13;5056919;28;20089;-53
2023/02/01 01:25:39;;;;;;;8.48;4.43;;;;;;;8.86;100.00;96787.31;5049026;28;20087;-53
2023/02/01 01:28:08;;;;;;;11.57;5.60;;;;;;;8.37;100.00;96781.56;5052510;28;20084;-57
2023/02/01 01:30:36;;;;;;;7.63;4.53;;;;;;;8.45;100.00;96789.69;5048434;28;20092;-49
2023/02/01 01:33:05;;;;;;;6.88;5.15;;;;;;;8.11;100.00;96794.13;5051844;28;20072;-57
2023/02/01 01:35:35;;;;;;;11.85;5.75;;;;;;;8.45;100.00;96788.88;5050653;28;20089;-56
2023/02/01 01:38:03;;;;;;;10.38;6.15;;;;;;;8.45;100.00;96767.84;5045847;28;20084;-56
2023/02/01 01:40:32;;;;;;;8.73;4.50;;;;;;;8.33;100.00;96770.47;5050086;28;20201;-54
2023/02/01 01:43:00;;;;;;;7.55;5.32;;;;;;;8.55;100.00;96760.88;5050062;28;20087;-54
2023/02/01 01:45:30;;;;;;;9.18;5.85;;;;;;;8.27;100.00;96770.13;5054192;28;20084;-53
2023/02/01 01:48:00;;;;;;;7.45;5.20;;;;;;;8.67;100.00;96766.91;5047810;28;20080;-58
2023/02/01 01:50:31;;;;;;;10.57;6.17;;;;;;;8.59;100.00;96762.28;5052154;28;20087;-56
2023/02/01 01:53:02;;;;;;;12.25;7.40;;;;;;;8.57;100.00;96756.34;5048845;28;20101;-55
2023/02/01 01:55:33;;;;;;;8.00;5.07;;;;;;;8.44;100.00;96755.66;5052607;28;20080;-52
2023/02/01 01:58:05;;;;;;;9.23;5.75;;;;;;;8.65;100.00;96766.22;5041944;28;20088;-51
2023/02/01 02:00:34;;;;;;;7.50;4.65;;;;;;;8.56;100.00;96765.16;5045785;28;20092;-55
2023/02/01 02:03:09;;;;;;;7.03;4.80;;;;;;;8.67;100.00;96764.28;5047954;28;20084;-53
2023/02/01 02:05:38;;;;;;;7.28;4.70;;;;;;;9.12;100.00;96757.06;5046306;28;20091;-53
2023/02/01 02:08:08;;;;;;;8.32;5.35;;;;;;;8.33;100.00;96762.59;5052319;28;20070;-56
2023/02/01 02:13:31;;;;;;;7.88;5.18;;;;;;;8.62;100.00;96751.53;5035936;28;20107;-52
2023/02/01 02:16:18;;;;;;;7.72;4.85;;;;;;;8.54;100.00;96746.91;5049126;28;20084;-54
2023/02/01 02:18:53;;;;;;;10.25;5.45;;;;;;;8.50;100.00;96752.56;5046648;28;20076;-58
2023/02/01 02:21:35;;;;;;;7.05;4.57;;;;;;;8.73;100.00;96764.63;5053263;28;20084;-52
2023/02/01 02:24:38;;;;;;;8.27;5.35;;;;;;;8.32;100.00;96749.56;5051672;28;20084;-54
2023/02/01 02:27:34;;;;;;;8.00;5.15;;;;;;;8.68;100.00;96756.28;5044094;28;20474;-55
2023/02/01 02:30:42;;;;;;;9.27;5.75;;;;;;;8.28;100.00;96758.66;5031435;28;20091;-52
2023/02/01 02:33:38;;;;;;;7.68;5.90;;;;;;;7.90;100.00;96761.69;4982909;28;20085;-53
2023/02/01 02:36:10;;;;;;;7.38;4.70;;;;;;;8.22;100.00;96738.94;5049891;28;20088;-54
2023/02/01 02:38:45;;;;;;;9.80;5.88;;;;;;;8.23;100.00;96740.63;5047711;28;20084;-51
2023/02/01 02:47:23;;;;;;;8.95;6.18;;;;;;;8.36;100.00;96744.88;5053707;28;20087;-54
2023/02/01 02:54:45;;;;;;;;;;;;;;;8.31;100.00;96737.38;5049373;28;20080;-54
2023/02/01 02:55:32;;;;;;;9.38;5.20;;;;;;;8.27;100.00;96723.66;5046344;28;20072;-56
2023/02/01 03:06:20;;;;;;;9.05;5.03;;;;;;;8.38;100.00;96706.22;5049332;28;20088;-53
2023/02/01 03:08:48;;;;;;;10.33;5.07;;;;;;;8.51;100.00;96706.91;5045095;28;20512;-54
2023/02/01 03:11:16;;;;;;;6.95;5.25;;;;;;;7.97;100.00;96698.06;5055894;28;20087;-54
2023/02/01 03:13:47;;;;;;;8.75;5.72;;;;;;;8.29;100.00;96715.66;5045031;28;20076;-58
2023/02/01 03:16:22;;;;;;;7.40;5.18;;;;;;;7.96;100.00;96721.81;5053925;28;20080;-54
2023/02/01 03:18:54;;;;;;;8.07;5.65;;;;;;;7.85;100.00;96707.75;5040655;28;20088;-54
2023/02/01 03:21:25;;;;;;;7.38;4.40;;;;;;;8.22;100.00;96710.06;5042721;28;20529;-55
2023/02/01 03:23:54;;;;;;;6.82;5.55;;;;;;;8.17;100.00;96706.97;5041638;28;20114;-54
2023/02/01 03:26:23;;;;;;;7.07;4.85;;;;;;;8.17;100.00;96709.59;5043588;28;20106;-51
2023/02/01 03:28:56;;;;;;;11.23;4.95;;;;;;;8.13;100.00;96708.19;5044669;28;20537;-54
2023/02/01 03:31:25;;;;;;;7.10;4.97;;;;;;;8.19;100.00;96715.56;5043327;28;20092;-53
2023/02/01 03:33:53;;;;;;;8.90;6.10;;;;;;;8.11;100.00;96696.94;5043278;28;20085;-55
2023/02/01 03:36:27;;;;;;;6.82;5.13;;;;;;;8.63;100.00;96703.25;5037591;28;20140;-52
2023/02/01 03:39:00;;;;;;;8.05;4.75;;;;;;;8.62;100.00;96696.31;5036617;28;20100;-53
2023/02/01 03:41:35;;;;;;;7.93;5.82;;;;;;;8.51;100.00;96699.00;5042105;28;20088;-55
2023/02/01 03:44:10;;;;;;;7.07;4.65;;;;;;;8.13;100.00;96689.78;5037591;28;20080;-57
2023/02/01 03:46:41;;;;;;;6.05;4.50;;;;;;;7.77;100.00;96696.19;5039950;28;20089;-54
2023/02/01 03:49:12;;;;;;;5.57;4.13;;;;;;;8.01;100.00;96690.78;5038736;28;20501;-55
2023/02/01 03:51:41;;;;;;;;;;;;;;;7.92;100.00;96710.75;5042495;28;20088;-54
2023/02/01 03:54:13;;;;;;;5.68;4.00;;;;;;;8.27;100.00;96689.50;5038948;28;19987;-57
2023/02/01 03:56:44;;;;;;;6.20;4.90;;;;;;;7.50;100.00;96678.19;5039017;28;20088;-58
2023/02/01 03:59:13;;;;;;;8.90;5.50;;;;;;;7.94;100.00;96692.22;5047469;28;20815;-57
2023/02/01 04:01:41;;;;;;;9.10;5.88;;;;;;;8.20;100.00;96684.88;5041998;28;20081;-55
2023/02/01 04:04:10;;;;;;;7.72;4.43;;;;;;;8.37;100.00;96686.13;5046724;28;20076;-54
2023/02/01 04:06:38;;;;;;;6.93;4.72;;;;;;;8.13;100.00;96684.53;5040683;28;20095;-57
2023/02/01 04:09:08;;;;;;;8.25;4.20;;;;;;;8.31;100.00;96680.41;5041785;28;20515;-53
2023/02/01 04:11:36;;;;;;;7.25;5.22;;;;;;;8.13;100.00;96689.78;5043351;28;20488;-51
2023/02/01 04:14:05;;;;;;;8.30;4.13;;;;;;;8.38;100.00;96687.84;5041852;28;20532;-55
2023/02/01 04:16:33;;;;;;;9.45;4.80;;;;;;;7.98;100.00;96678.75;5038780;28;20493;-57
2023/02/01 04:19:01;;;;;;;5.70;4.40;;;;;;;8.53;100.00;96663.75;5041034;28;20088;-52
2023/02/01 04:21:30;;;;;;;7.65;4.32;;;;;;;8.20;100.00;96671.75;5042559;28;20087;-52
2023/02/01 04:23:58;;;;;;;7.95;5.13;;;;;;;8.15;100.00;96679.16;5044147;28;20095;-56
2023/02/01 04:26:28;;;;;;;5.70;4.38;;;;;;;8.35;100.00;96685.41;5043300;28;20084;-54
2023/02/01 04:28:57;;;;;;;8.30;5.63;;;;;;;7.92;100.00;96681.84;5042734;28;20087;-56
2023/02/01 04:31:26;;;;;;;6.47;4.22;;;;;;;8.19;100.00;96660.41;5046188;28;20084;-56
2023/02/01 04:33:57;;;;;;;7.53;4.43;;;;;;;8.37;100.00;96671.19;5045987;28;20080;-57
2023/02/01 04:36:25;;;;;;;5.95;4.13;;;;;;;8.07;100.00;96683.22;5047092;28;20077;-56
2023/02/01 04:38:54;;;;;;;6.03;4.40;;;;;;;8.42;100.00;96678.72;5045328;28;20095;-55
2023/02/01 04:41:22;;;;;;;7.40;4.57;;;;;;;8.02;100.00;96688.03;5043703;28;20089;-52
2023/02/01 04:43:52;;;;;;;6.47;4.30;;;;;;;8.35;100.00;96688.88;5043347;28;20084;-58
2023/02/01 04:46:21;;;;;;;8.40;4.70;;;;;;;8.43;100.00;96680.38;5046400;28;20536;-59
2023/02/01 04:48:50;;;;;;;6.95;5.00;;;;;;;8.48;100.00;96681.69;5046712;28;20092;-49
2023/02/01 04:51:18;;;;;;;6.13;4.47;;;;;;;8.40;100.00;96667.53;5044383;28;20077;-51
2023/02/01 04:53:47;;;;;;;5.70;3.78;;;;;;;8.66;100.00;96694.28;5043892;28;20115;-52
2023/02/01 04:56:15;;;;;;;6.38;4.82;;;;;;;8.15;100.00;96690.50;5045172;28;20081;-52
2023/02/01 04:58:43;;;;;;;6.38;4.75;;;;;;;8.11;100.00;96662.81;5046511;28;20089;-49
2023/02/01 05:01:13;;;;;;;6.38;4.63;;;;;;;8.42;100.00;96671.69;5044320;28;20079;-55
2023/02/01 05:03:41;;;;;;;7.97;4.33;;;;;;;8.33;100.00;96675.06;5043222;28;20540;-58
2023/02/01 05:06:10;;;;;;;5.15;3.72;;;;;;;8.52;100.00;96684.91;5045145;28;20087;-54
2023/02/01 05:08:38;;;;;;;6.47;4.43;;;;;;;8.40;100.00;96691.19;5044829;28;20514;-58
2023/02/01 05:13:47;;;;;;;7.07;3.50;;;;;;;8.27;100.00;96673.75;5046516;28;20500;-56
2023/02/01 05:13:54;;;;;;;6.50;4.03;;;;;;;8.88;100.00;96686.28;5047299;28;20091;-55
2023/02/01 05:16:25;;;;;;;5.00;3.55;;;;;;;8.43;100.00;96664.63;5048121;28;20672;-56
2023/02/01 05:18:53;;;;;;;;;;;;;;;8.31;100.00;96684.84;5043618;28;20084;-52
2023/02/01 05:21:21;;;;;;;5.70;4.20;;;;;;;8.32;100.00;96681.25;5043313;28;19964;-58
2023/02/01 05:26:35;;;;;;;6.30;4.40;;;;;;;8.33;100.00;96688.19;5048428;28;20076;-53
2023/02/01 05:29:04;;;;;;;6.43;4.88;;;;;;;8.21;100.00;96676.03;5043102;28;20088;-55
2023/02/01 05:31:34;;;;;;;5.43;3.80;;;;;;;8.40;100.00;96688.56;5043412;28;20080;-53
2023/02/01 05:34:02;;;;;;;5.82;4.50;;;;;;;8.44;100.00;96685.53;5046541;28;20069;-52
2023/02/01 05:36:31;;;;;;;9.77;4.50;;;;;;;8.36;100.00;96647.66;5047738;28;20080;-55
2023/02/01 05:38:59;;;;;;;8.52;3.78;;;;;;;8.62;100.00;96691.06;5045113;28;20103;-58
2023/02/01 05:41:27;;;;;;;5.00;3.90;;;;;;;8.04;100.00;96672.97;5040549;28;20103;-53
2023/02/01 05:43:55;;;;;;;9.15;4.90;;;;;;;8.43;100.00;96680.38;5044880;28;20076;-57
2023/02/01 05:46:24;;;;;;;8.38;4.05;;;;;;;8.30;100.00;96681.38;5038144;28;20524;-52
2023/02/01 05:48:54;;;;;;;5.88;3.83;;;;;;;8.41;100.00;96659.50;5046275;28;20081;-54
2023/02/01 05:51:22;;;;;;;5.17;3.97;;;;;;;8.68;100.00;96674.78;5048069;28;20091;-56
2023/02/01 05:53:50;;;;;;;4.00;3.22;;;;;;;8.37;100.00;96654.59;5044765;28;20092;-54
2023/02/01 05:56:19;;;;;;;7.55;4.15;;;;;;;8.43;100.00;96662.84;5045034;28;20091;-52
2023/02/01 05:58:47;;;;;;;4.72;3.45;;;;;;;8.46;100.00;96654.69;5042934;28;20088;-59
2023/02/01 06:01:15;;;;;;;5.82;4.13;;;;;;;8.66;100.00;96655.69;5043311;28;20525;-55
2023/02/01 06:03:44;;;;;;;6.05;3.65;;;;;;;8.44;100.00;96642.66;5046110;28;20092;-57
2023/02/01 06:06:14;;;;;;;5.15;3.40;;;;;;;8.71;100.00;96658.78;5042187;28;20069;-54
2023/02/01 06:08:42;;;;;;;4.00;3.45;;;;;;;8.23;100.00;96651.31;5047891;28;20072;-52
2023/02/01 06:11:10;;;;;;;7.18;4.40;;;;;;;9.05;100.00;96655.94;5043992;28;20111;-50
2023/02/01 06:13:47;;;;;;;5.50;3.35;;;;;;;8.07;100.00;96645.63;5043572;28;20085;-55
2023/02/01 06:16:15;;;;;;;5.85;3.70;;;;;;;8.20;100.00;96617.41;5041106;28;20084;-55
2023/02/01 06:18:44;;;;;;;8.48;3.92;;;;;;;8.63;100.00;96640.16;5043903;28;20080;-50
2023/02/01 06:21:15;;;;;;;6.05;3.78;;;;;;;8.81;100.00;96622.03;5041241;28;20084;-54
2023/02/01 06:23:43;;;;;;;4.82;3.33;;;;;;;8.36;100.00;96631.91;5043311;28;20084;-56
2023/02/01 06:26:12;;;;;;;6.00;3.80;;;;;;;8.66;100.00;96639.91;5040738;28;20072;-56
2023/02/01 06:28:40;;;;;;;5.63;3.83;;;;;;;8.55;100.00;96634.72;5039955;28;20502;-56
2023/02/01 06:31:08;;;;;;;4.97;3.25;;;;;;;8.37;100.00;96630.97;5041751;28;20092;-54
2023/02/01 06:33:37;;;;;;;5.85;4.65;;;;;;;8.11;100.00;96609.44;5050894;28;20713;-56
2023/02/01 06:36:08;;;;;;;3.97;3.53;;;;;;;8.46;100.00;96612.63;5041081;28;20087;-58
2023/02/01 06:38:38;;;;;;;5.20;3.35;;;;;;;8.32;100.00;96619.00;5047431;28;20552;-56
2023/02/01 06:41:06;;;;;;;4.85;3.70;;;;;;;8.68;100.00;96595.94;5042143;28;20080;-59
2023/02/01 06:43:35;;;;;;;4.00;3.30;;;;;;;8.85;100.00;96620.78;5041032;28;20536;-50
2023/02/01 06:46:05;;;;;;;5.18;2.97;;;;;;;8.46;100.00;96640.72;5047119;28;20083;-56
2023/02/01 06:48:34;;;;;;;5.25;3.78;;;;;;;8.53;100.00;96634.84;5039043;28;20077;-58
2023/02/01 06:51:02;;;;;;;4.65;3.03;;;;;;;8.52;100.00;96627.91;5043960;28;20076;-58
2023/02/01 06:53:31;;;;;;;6.68;4.07;;;;;;;8.48;100.00;96637.00;5040444;28;20101;-58
2023/02/01 06:56:01;;;;;;;4.95;3.60;;;;;;;8.76;100.00;96642.59;5042721;28;20480;-57
2023/02/01 06:58:31;;;;;;;5.53;3.30;;;;;;;8.37;100.00;96641.47;5043796;28;20480;-55
2023/02/01 07:01:02;;;;;;;6.43;3.95;;;;;;;8.41;100.00;96637.66;5040138;28;20080;-54
2023/02/01 07:03:30;;;;;;;8.55;3.67;;;;;;;8.50;100.00;96643.00;5041493;28;20075;-53
2023/02/01 07:05:59;;;;;;;5.10;3.67;;;;;;;8.57;100.00;96653.84;5041295;28;20971;-49
2023/02/01 07:08:28;;;;;;;8.02;4.35;;;;;;;8.96;100.00;96657.53;5044162;28;20465;-54
2023/02/01 07:10:56;;;;;;;5.15;3.40;;;;;;;8.56;100.00;96637.19;5043985;28;20440;-54
2023/02/01 07:13:26;;;;;;;6.53;3.92;;;;;;;8.54;100.00;96664.59;5044081;28;20076;-53
2023/02/01 07:15:54;;;;;;;5.95;3.88;;;;;;;8.43;100.00;96630.47;5043443;28;20088;-55
2023/02/01 07:18:23;;;;;;;4.05;2.60;;;;;;;8.70;100.00;96632.59;5041687;28;20111;-51
2023/02/01 07:20:51;;;;;;;6.35;3.72;;;;;;;8.90;100.00;96623.03;5041946;28;20495;-56
2023/02/01 07:23:20;;;;;;;6.55;3.28;;;;;;;8.50;100.00;96632.47;5041089;28;20073;-55
2023/02/01 07:25:48;;;;;;;5.15;3.72;;;;;;;8.65;100.00;96634.78;5042754;28;20077;-56
2023/02/01 07:28:17;;;;;;;5.78;3.53;;;;;;;8.84;100.00;96641.94;5040976;28;20091;-56
2023/02/01 07:30:50;;;;;;;4.18;3.05;;;;;;;9.00;100.00;96644.94;5041390;28;20084;-55
2023/02/01 07:33:20;;;;;;;5.28;3.35;;;;;;;9.09;100.00;96651.25;5041424;28;20088;-57
2023/02/01 07:35:50;;;;;;;5.35;3.40;;;;;;;9.09;100.00;96644.19;5044205;28;20088;-57
2023/02/01 07:38:19;;;;;;;5.07;3.55;;;;;;;8.80;100.00;96663.25;5043723;28;20076;-54
2023/02/01 07:40:47;;;;;;;5.65;3.10;;;;;;;9.23;100.00;96661.41;5039086;28;20466;-56
2023/02/01 07:43:15;;;;;;;7.13;3.45;;;;;;;9.07;100.00;96664.50;5042957;28;20533;-56
2023/02/01 07:45:44;;;;;;;4.80;3.55;;;;;;;9.01;100.00;96654.50;5039018;28;20084;-54
2023/02/01 07:48:13;;;;;;;6.85;3.40;;;;;;;9.10;100.00;96660.78;5040277;28;20069;-54
2023/02/01 07:50:42;;;;;;;7.78;3.13;;;;;;;8.92;100.00;96661.38;5041273;28;20084;-55
2023/02/01 07:53:10;;;;;;;4.32;2.97;;;;;;;8.82;100.00;96654.41;5038281;28;20091;-59
2023/02/01 07:55:38;;;;;;;4.03;2.80;;;;;;;9.28;100.00;96654.78;5044818;28;20080;-57
2023/02/01 07:58:07;;;;;;;4.03;3.03;;;;;;;8.68;100.00;96645.88;5041179;28;20087;-55
2023/02/01 08:03:22;;;;;;;5.75;3.83;;;;;;;8.93;100.00;96672.75;5057510;28;20083;-56
2023/02/01 08:05:55;;;;;;;3.92;2.85;;;;;;;8.97;100.00;96679.41;5055865;28;20084;-54
2023/02/01 08:08:23;;;;;;;3.92;2.50;;;;;;;9.43;100.00;96655.28;5055299;28;20092;-55
2023/02/01 08:10:54;;;;;;;5.45;2.90;;;;;;;9.09;100.00;96677.56;5049735;28;20115;-56
2023/02/01 08:13:22;;;;;;;;;;;;;;;9.24;100.00;96682.31;5052942;28;20084;-54
2023/02/01 08:15:50;;;;;;;5.15;3.30;;;;;;;8.98;100.00;96688.94;5052051;28;19967;-50
2023/02/01 08:18:18;;;;;;;4.47;2.88;;;;;;;8.86;100.00;96684.75;5051459;28;20081;-58
2023/02/01 08:20:48;;;;;;;8.82;2.55;;;;;;;9.13;100.00;96682.41;5055203;28;20151;-53
2023/02/01 08:23:16;;;;;;;4.68;3.20;;;;;;;9.26;100.00;96690.94;5047587;28;20087;-54
2023/02/01 08:25:45;;;;;;;4.07;2.60;;;;;;;9.46;100.00;96693.63;5048392;28;20084;-56
2023/02/01 08:28:13;;;;;;;4.50;2.83;;;;;;;9.06;100.00;96694.41;5048152;28;20856;-52
2023/02/01 08:30:42;;;;;;;5.60;3.08;;;;;;;9.13;100.00;96687.69;5049353;28;20091;-56
2023/02/01 08:33:11;;;;;;;4.75;2.70;;;;;;;9.13;100.00;96671.88;5051388;28;20077;-56
2023/02/01 08:35:39;;;;;;;3.08;2.47;;;;;;;9.50;100.00;96692.44;5047157;28;20092;-53
2023/02/01 08:38:12;;;;;;;5.35;2.63;;;;;;;9.30;100.00;96688.03;5057495;28;20084;-55
2023/02/01 08:40:41;;;;;;;8.40;3.03;;;;;;;9.39;100.00;96689.88;5050960;28;20080;-51
2023/02/01 08:43:09;;;;;;;6.10;2.90;;;;;;;9.49;100.00;96696.00;5049049;28;20091;-54
2023/02/01 08:45:38;;;;;;;3.55;2.58;;;;;;;9.26;100.00;96682.22;5048559;28;20401;-57
2023/02/01 08:48:06;;;;;;;3.00;2.00;;;;;;;9.63;100.00;96676.38;5055602;28;20099;-57
2023/02/01 08:50:34;;;;;;;6.68;3.25;;;;;;;9.70;100.00;96685.41;5049410;28;20077;-51
2023/02/01 08:53:03;;;;;;;4.28;2.75;;;;;;;9.28;100.00;96685.53;5049373;28;20076;-51
2023/02/01 08:55:32;;;;;;;4.88;3.15;;;;;;;9.50;100.00;96674.00;5049767;28;20080;-51
2023/02/01 08:58:01;;;;;;;4.22;2.50;;;;;;;9.43;100.00;96689.50;5055029;28;20178;-59
2023/02/01 09:00:29;;;;;;;3.78;2.83;;;;;;;9.71;100.00;96695.00;5044494;28;20088;-55
2023/02/01 09:02:58;;;;;;;4.43;2.38;;;;;;;9.73;100.00;96688.63;5048378;28;20545;-50
2023/02/01 09:05:27;;;;;;;2.95;2.15;;;;;;;9.63;100.00;96665.84;5047028;28;20099;-53
2023/02/01 09:08:15;;;;;;;10.07;2.70;;;;;;;9.37;100.00;96668.13;5050578;28;20080;-52
2023/02/01 09:10:45;;;;;;;6.57;3.50;;;;;;;9.39;100.00;96603.00;5049929;28;20076;-53
2023/02/01 09:13:13;;;;;;;5.05;3.20;;;;;;;9.49;100.00;96674.94;5047589;28;20083;-55
2023/02/01 09:15:41;;;;;;;6.05;2.53;;;;;;;9.60;100.00;96674.03;5050620;28;20536;-53
2023/02/01 09:18:10;;;;;;;5.60;3.47;;;;;;;9.24;100.00;96671.81;5049651;28;20085;-53
2023/02/01 09:20:38;;;;;;;3.30;2.47;;;;;;;9.80;100.00;96657.31;5050376;28;20087;-55
2023/02/01 09:23:07;;;;;;;3.90;3.25;;;;;;;9.78;100.00;96654.00;5053858;28;20081;-56
2023/02/01 09:25:37;;;;;;;3.30;2.38;;;;;;;9.94;100.00;96678.03;5039689;28;20088;-52
2023/02/01 09:28:08;;;;;;;9.10;2.95;;;;;;;9.77;100.00;96688.34;5047071;28;20556;-51
2023/02/01 09:30:37;;;;;;;3.50;2.67;;;;;;;10.32;100.00;96676.44;5052383;28;20552;-56
2023/02/01 09:33:06;;;;;;;3.05;2.22;;;;;;;9.87;100.00;96678.69;5050932;28;20099;-58
2023/02/01 09:35:34;;;;;;;3.20;2.33;;;;;;;9.83;100.00;96691.28;5050215;28;20091;-55
2023/02/01 09:38:02;;;;;;;5.03;2.67;;;;;;;9.82;100.00;96691.44;5054564;28;20084;-54
2023/02/01 09:40:31;;;;;;;3.15;2.10;;;;;;;10.22;100.00;96689.59;5047657;28;20084;-52
2023/02/01 09:43:20;;;;;;;3.90;2.47;;;;;;;9.55;100.00;96713.91;5047130;28;20085;-52
2023/02/01 09:45:53;;;;;;;4.60;2.88;;;;;;;9.71;100.00;96684.47;5055480;28;20076;-57
2023/02/01 09:48:24;;;;;;;4.53;2.67;;;;;;;9.93;100.00;96672.88;5047138;28;20457;-57
2023/02/01 09:50:56;;;;;;;3.15;2.25;;;;;;;9.51;100.00;96687.03;5049824;28;20122;-52
2023/02/01 09:53:27;;;;;;;5.20;3.53;;;;;;;10.07;100.00;96698.84;5047040;28;20091;-54
2023/02/01 09:56:00;;;;;;;4.53;2.72;;;;;;;9.62;100.00;96659.75;5046257;28;20076;-56
2023/02/01 09:58:33;;;;;;;4.78;2.75;;;;;;;9.58;100.00;96686.50;5046186;28;20077;-54
2023/02/01 10:01:04;;;;;;;4.75;3.08;;;;;;;10.07;100.00;96698.00;5051277;28;20471;-52
2023/02/01 10:03:35;;;;;;;4.25;3.40;;;;;;;9.46;100.00;96688.38;5046845;28;20084;-49
2023/02/01 10:06:17;;;;;;;3.88;2.88;;;;;;;9.36;100.00;96675.19;5054153;28;20044;-54
2023/02/01 10:09:03;;;;;;;4.22;2.75;;;;;;;9.65;100.00;96704.25;5057380;28;20572;-55
2023/02/01 10:11:48;;;;;;;6.80;2.78;;;;;;;9.85;100.00;96702.53;5051583;28;20103;-57
2023/02/01 10:14:33;;;;;;;4.45;2.67;;;;;;;9.88;100.00;96701.44;5045430;28;20091;-53
2023/02/01 10:17:06;;;;;;;3.28;2.55;;;;;;;9.35;100.00;96691.94;5048681;28;20080;-55
2023/02/01 10:19:41;;;;;;;3.20;2.45;;;;;;;9.43;100.00;96680.78;5052543;28;20083;-52
2023/02/01 10:22:11;;;;;;;3.15;2.70;;;;;;;9.31;100.00;96692.34;5043224;28;20084;-55
2023/02/01 10:24:42;;;;;;;4.65;3.03;;;;;;;9.64;100.00;96699.16;5053627;28;20084;-52
2023/02/01 10:27:15;;;;;;;4.70;2.80;;;;;;;10.02;100.00;96710.78;5053367;28;20076;-55
2023/02/01 10:29:47;;;;;;;3.58;2.65;;;;;;;10.04;100.00;96714.09;5050927;28;20084;-52
2023/02/01 10:32:18;;;;;;;5.28;3.10;;;;;;;10.26;100.00;96708.63;5048287;28;20081;-55
2023/02/01 10:34:49;;;;;;;3.42;2.83;;;;;;;9.37;100.00;96678.66;5049997;28;20081;-52
2023/02/01 10:37:27;;;;;;;3.75;2.47;;;;;;;9.61;100.00;96692.34;5041259;28;20088;-55
2023/02/01 10:39:57;;;;;;;6.22;3.22;;;;;;;9.66;100.00;96719.09;5046183;28;20137;-53
2023/02/01 10:42:27;;;;;;;5.70;2.85;;;;;;;9.92;100.00;96716.00;5045497;28;20077;-57
2023/02/01 10:44:59;;;;;;;5.88;4.03;;;;;;;9.70;100.00;96720.50;5047113;28;20068;-55
2023/02/01 10:47:27;;;;;;;4.07;2.80;;;;;;;9.83;100.00;96712.34;5049898;28;20484;-54
2023/02/01 10:50:03;;;;;;;4.20;2.35;;;;;;;9.77;100.00;96699.72;5046265;28;20076;-53
2023/02/01 10:52:39;;;;;;;4.45;2.42;;;;;;;9.87;100.00;96715.56;5052164;28;23853;-57
2023/02/01 10:55:26;;;;;;;2.75;2.22;;;;;;;9.63;100.00;96711.44;5051370;28;20094;-55
2023/02/01 10:57:59;;;;;;;3.70;2.65;;;;;;;9.49;100.00;96690.75;5051240;28;20087;-56
2023/02/01 11:00:30;;;;;;;4.30;2.80;;;;;;;9.99;100.00;96722.41;5053104;28;20083;-55
2023/02/01 11:02:58;;;;;;;3.05;2.40;;;;;;;9.46;100.00;96730.50;5050759;28;20068;-50
2023/02/01 11:05:27;;;;;;;2.80;2.00;;;;;;;9.73;100.00;96719.38;5048316;28;20068;-49
2023/02/01 11:07:56;;;;;;;2.92;2.40;;;;;;;9.49;100.00;96725.78;5041692;28;20516;-50
2023/02/01 11:10:38;;;;;;;4.00;2.83;;;;;;;9.51;100.00;96733.59;5040405;28;20092;-57
2023/02/01 11:13:15;;;;;;;3.67;2.70;;;;;;;9.25;100.00;96743.69;5046148;28;20072;-54
2023/02/01 11:15:46;;;;;;;4.63;2.60;;;;;;;9.24;100.00;96703.38;5048137;28;20088;-50
2023/02/01 11:18:17;;;;;;;3.45;2.55;;;;;;;9.59;100.00;96731.13;5042073;28;20548;-54
2023/02/01 11:20:49;;;;;;;3.20;2.45;;;;;;;9.73;100.00;96727.28;5034119;28;20140;-55
2023/02/01 11:23:18;;;;;;;3.15;2.00;;;;;;;9.53;100.00;96734.25;5052306;28;20083;-54
2023/02/01 11:25:52;;;;;;;3.80;2.40;;;;;;;9.50;100.00;96711.69;5046641;28;20104;-53
2023/02/01 11:28:22;;;;;;;2.13;1.83;;;;;;;9.59;100.00;96725.03;5052873;28;20084;-53
2023/02/01 11:30:55;;;;;;;4.03;2.30;;;;;;;9.69;100.00;96708.28;5050824;28;20077;-52
2023/02/01 11:33:29;;;;;;;4.75;2.10;;;;;;;9.92;100.00;96734.44;5046531;28;20087;-53
2023/02/01 11:35:58;;;;;;;5.97;2.10;;;;;;;9.64;100.00;96709.69;5055906;28;20077;-49
2023/02/01 11:38:29;;;;;;;3.10;1.70;;;;;;;10.10;100.00;96740.72;5045223;28;20084;-51
2023/02/01 11:40:58;;;;;;;;;;;;;;;9.73;100.00;96722.03;5052570;28;20076;-52
2023/02/01 11:43:28;;;;;;;3.25;1.70;;;;;;;9.87;100.00;96713.75;5044573;28;19955;-52
2023/02/01 11:45:59;;;;;;;4.38;2.70;;;;;;;9.82;100.00;96726.50;5053948;28;20072;-55
2023/02/01 11:48:29;;;;;;;3.97;2.53;;;;;;;9.79;100.00;96716.22;5043537;28;20072;-53
2023/02/01 11:51:08;;;;;;;2.83;2.40;;;;;;;9.85;100.00;96714.88;5045841;28;20091;-50
2023/02/01 11:53:47;;;;;;;8.52;2.70;;;;;;;9.95;100.00;96711.28;5047583;28;20525;-49
2023/02/01 11:56:23;;;;;;;4.78;2.55;;;;;;;10.08;100.00;96691.75;5043391;28;20076;-54
2023/02/01 11:59:11;;;;;;;4.32;2.50;;;;;;;9.93;100.00;96680.78;5042132;28;20088;-58
2023/02/01 12:01:50;;;;;;;3.00;2.10;;;;;;;9.39;100.00;96682.81;5043579;28;20092;-49
2023/02/01 12:04:58;;;;;;;3.28;2.22;;;;;;;9.74;100.00;96678.94;5053132;28;20642;-53
2023/02/01 12:07:40;;;;;;;4.22;3.17;;;;;;;9.58;100.00;96666.28;5049635;28;20085;-51
2023/02/01 12:10:23;;;;;;;4.32;2.55;;;;;;;9.58;100.00;96668.06;5046877;28;20093;-54
2023/02/01 12:12:59;;;;;;;4.50;2.80;;;;;;;9.40;100.00;96658.16;5047342;28;20080;-54
2023/02/01 12:15:47;;;;;;;3.63;2.45;;;;;;;9.68;100.00;96645.25;5045107;28;20080;-54
2023/02/01 12:18:56;;;;;;;5.43;4.60;;;;;;;9.74;100.00;96671.03;5041364;28;20085;-55